ENVR

Værøy Heliport

Værøy, Norway
METAR ENVR 180650Z 19017KT 9999 FEW012 SCT045 12/10 Q1001
Observed Flight Rules
Aug-18 @ 06:50 UTC (17 hours ago) Visual Flight Rules
Wind Visibility Clouds
190° at 17 knots 10,000+ meters
  • Few at 1,200' AGL
  • Scattered at 4,500' AGL
Temperatures Readings
Current 12°C / 54°F
Dewpoint 10°C / 50°F
Humidity 88%
Altimeter 29.56" Hg
Pressure 1001 hPa
Elevation 4
METAR ENVR 180650Z 19017KT 9999 FEW012 SCT045 12/10 Q1001
Observed Flight Rules
Aug-18 @ 06:50 UTC
(17 hours ago)
VFR
Wind Visibility
190° at 17 knots 10,000+ meters
Clouds
  • Few at 1,200' AGL
  • Scattered at 4,500' AGL
Temperature Dewpoint
12°C / 54°F 10°C / 50°F
Humidity Altimeter Pressure
88% 29.56" Hg 1001 hPa